sensor_id;sensor_type;location;lat;lon;timestamp;P1;durP1;ratioP1;P2;durP2;ratioP2
17818;SDS011;9034;50.284;19.310;2024-03-17T00:00:13;3.57;;;2.87;;
17818;SDS011;9034;50.284;19.310;2024-03-17T00:01:18;2.55;;;2.35;;
17818;SDS011;9034;50.284;19.310;2024-03-17T00:02:19;4.03;;;2.60;;
17818;SDS011;9034;50.284;19.310;2024-03-17T00:03:22;2.67;;;2.47;;
17818;SDS011;9034;50.284;19.310;2024-03-17T00:04:24;5.15;;;2.53;;
17818;SDS011;9034;50.284;19.310;2024-03-17T00:05:25;2.63;;;2.03;;
17818;SDS011;9034;50.284;19.310;2024-03-17T00:06:26;3.97;;;2.75;;
17818;SDS011;9034;50.284;19.310;2024-03-17T00:07:28;2.45;;;2.13;;
17818;SDS011;9034;50.284;19.310;2024-03-17T00:08:29;3.33;;;2.38;;
17818;SDS011;9034;50.284;19.310;2024-03-17T00:09:30;5.18;;;2.85;;
17818;SDS011;9034;50.284;19.310;2024-03-17T00:10:32;2.83;;;2.53;;
17818;SDS011;9034;50.284;19.310;2024-03-17T00:11:34;2.53;;;2.33;;
17818;SDS011;9034;50.284;19.310;2024-03-17T00:12:35;2.67;;;2.47;;
17818;SDS011;9034;50.284;19.310;2024-03-17T00:13:37;4.18;;;2.70;;
17818;SDS011;9034;50.284;19.310;2024-03-17T00:14:38;3.17;;;2.88;;
17818;SDS011;9034;50.284;19.310;2024-03-17T00:15:40;4.03;;;2.80;;
17818;SDS011;9034;50.284;19.310;2024-03-17T00:16:42;3.55;;;3.03;;
17818;SDS011;9034;50.284;19.310;2024-03-17T00:17:43;3.10;;;2.80;;
17818;SDS011;9034;50.284;19.310;2024-03-17T00:18:46;4.57;;;3.80;;
17818;SDS011;9034;50.284;19.310;2024-03-17T00:19:47;3.92;;;3.33;;
17818;SDS011;9034;50.284;19.310;2024-03-17T00:20:49;3.33;;;3.03;;
17818;SDS011;9034;50.284;19.310;2024-03-17T00:21:50;3.33;;;3.03;;
17818;SDS011;9034;50.284;19.310;2024-03-17T00:22:51;5.78;;;3.95;;
17818;SDS011;9034;50.284;19.310;2024-03-17T00:23:52;5.63;;;3.45;;
17818;SDS011;9034;50.284;19.310;2024-03-17T00:24:54;3.28;;;2.97;;
17818;SDS011;9034;50.284;19.310;2024-03-17T00:25:55;3.38;;;2.78;;
17818;SDS011;9034;50.284;19.310;2024-03-17T00:26:56;3.45;;;3.15;;
17818;SDS011;9034;50.284;19.310;2024-03-17T00:27:59;4.32;;;3.30;;
17818;SDS011;9034;50.284;19.310;2024-03-17T00:29:00;4.15;;;3.08;;
17818;SDS011;9034;50.284;19.310;2024-03-17T00:30:01;3.60;;;3.20;;
17818;SDS011;9034;50.284;19.310;2024-03-17T00:31:03;3.30;;;3.00;;
17818;SDS011;9034;50.284;19.310;2024-03-17T00:32:06;5.93;;;3.90;;
17818;SDS011;9034;50.284;19.310;2024-03-17T00:33:08;3.55;;;3.10;;
17818;SDS011;9034;50.284;19.310;2024-03-17T00:34:10;4.10;;;2.70;;
17818;SDS011;9034;50.284;19.310;2024-03-17T00:35:11;5.03;;;2.90;;
17818;SDS011;9034;50.284;19.310;2024-03-17T00:36:14;4.47;;;3.40;;
17818;SDS011;9034;50.284;19.310;2024-03-17T00:37:15;5.72;;;3.40;;
17818;SDS011;9034;50.284;19.310;2024-03-17T00:38:16;5.68;;;2.88;;
17818;SDS011;9034;50.284;19.310;2024-03-17T00:39:18;3.35;;;2.90;;
17818;SDS011;9034;50.284;19.310;2024-03-17T00:40:20;9.52;;;3.53;;
17818;SDS011;9034;50.284;19.310;2024-03-17T00:41:21;4.82;;;2.92;;
17818;SDS011;9034;50.284;19.310;2024-03-17T00:42:22;2.92;;;2.30;;
17818;SDS011;9034;50.284;19.310;2024-03-17T00:43:24;5.85;;;3.17;;
17818;SDS011;9034;50.284;19.310;2024-03-17T00:44:25;3.47;;;2.80;;
17818;SDS011;9034;50.284;19.310;2024-03-17T00:45:26;8.00;;;3.75;;
17818;SDS011;9034;50.284;19.310;2024-03-17T00:46:27;4.25;;;3.20;;
17818;SDS011;9034;50.284;19.310;2024-03-17T00:47:29;9.73;;;3.55;;
17818;SDS011;9034;50.284;19.310;2024-03-17T00:48:30;7.95;;;2.67;;
17818;SDS011;9034;50.284;19.310;2024-03-17T00:49:33;5.70;;;2.95;;
17818;SDS011;9034;50.284;19.310;2024-03-17T00:50:35;7.78;;;3.33;;
17818;SDS011;9034;50.284;19.310;2024-03-17T00:51:37;8.02;;;3.03;;
17818;SDS011;9034;50.284;19.310;2024-03-17T00:52:38;5.05;;;2.67;;
17818;SDS011;9034;50.284;19.310;2024-03-17T00:53:39;6.57;;;2.95;;
17818;SDS011;9034;50.284;19.310;2024-03-17T00:54:41;7.18;;;3.20;;
17818;SDS011;9034;50.284;19.310;2024-03-17T00:55:43;7.45;;;3.00;;
17818;SDS011;9034;50.284;19.310;2024-03-17T00:56:44;8.00;;;3.40;;
17818;SDS011;9034;50.284;19.310;2024-03-17T00:57:46;5.15;;;3.20;;
17818;SDS011;9034;50.284;19.310;2024-03-17T00:58:47;9.18;;;3.42;;
17818;SDS011;9034;50.284;19.310;2024-03-17T00:59:51;5.13;;;3.50;;
17818;SDS011;9034;50.284;19.310;2024-03-17T01:00:53;9.63;;;2.88;;
17818;SDS011;9034;50.284;19.310;2024-03-17T01:01:55;7.40;;;2.95;;
17818;SDS011;9034;50.284;19.310;2024-03-17T01:02:56;8.40;;;3.72;;
17818;SDS011;9034;50.284;19.310;2024-03-17T01:03:57;8.27;;;3.58;;
17818;SDS011;9034;50.284;19.310;2024-03-17T01:05:00;5.20;;;3.53;;
17818;SDS011;9034;50.284;19.310;2024-03-17T01:06:02;6.45;;;3.17;;
17818;SDS011;9034;50.284;19.310;2024-03-17T01:07:05;8.63;;;3.13;;
17818;SDS011;9034;50.284;19.310;2024-03-17T01:08:06;9.77;;;3.35;;
17818;SDS011;9034;50.284;19.310;2024-03-17T01:09:07;7.35;;;3.50;;
17818;SDS011;9034;50.284;19.310;2024-03-17T01:10:09;9.50;;;3.65;;
17818;SDS011;9034;50.284;19.310;2024-03-17T01:11:13;8.98;;;4.50;;
17818;SDS011;9034;50.284;19.310;2024-03-17T01:12:15;6.93;;;3.35;;
17818;SDS011;9034;50.284;19.310;2024-03-17T01:13:18;7.30;;;3.17;;
17818;SDS011;9034;50.284;19.310;2024-03-17T01:14:19;10.00;;;3.75;;
17818;SDS011;9034;50.284;19.310;2024-03-17T01:15:20;10.40;;;3.33;;
17818;SDS011;9034;50.284;19.310;2024-03-17T01:16:22;10.20;;;3.35;;
17818;SDS011;9034;50.284;19.310;2024-03-17T01:17:23;7.20;;;3.33;;
17818;SDS011;9034;50.284;19.310;2024-03-17T01:18:24;7.28;;;2.97;;
17818;SDS011;9034;50.284;19.310;2024-03-17T01:19:26;5.28;;;3.05;;
17818;SDS011;9034;50.284;19.310;2024-03-17T01:20:29;12.10;;;3.53;;
17818;SDS011;9034;50.284;19.310;2024-03-17T01:21:30;8.93;;;3.60;;
17818;SDS011;9034;50.284;19.310;2024-03-17T01:22:32;7.13;;;3.20;;
17818;SDS011;9034;50.284;19.310;2024-03-17T01:23:33;4.20;;;3.03;;
17818;SDS011;9034;50.284;19.310;2024-03-17T01:24:34;9.75;;;3.65;;
17818;SDS011;9034;50.284;19.310;2024-03-17T01:25:36;7.28;;;3.38;;
17818;SDS011;9034;50.284;19.310;2024-03-17T01:26:37;4.35;;;2.63;;
17818;SDS011;9034;50.284;19.310;2024-03-17T01:27:38;7.03;;;3.20;;
17818;SDS011;9034;50.284;19.310;2024-03-17T01:28:39;11.57;;;3.47;;
17818;SDS011;9034;50.284;19.310;2024-03-17T01:29:41;8.75;;;3.30;;
17818;SDS011;9034;50.284;19.310;2024-03-17T01:30:43;8.77;;;3.83;;
17818;SDS011;9034;50.284;19.310;2024-03-17T01:31:44;7.68;;;3.60;;
17818;SDS011;9034;50.284;19.310;2024-03-17T01:32:46;9.95;;;3.60;;
17818;SDS011;9034;50.284;19.310;2024-03-17T01:33:47;7.10;;;4.38;;
17818;SDS011;9034;50.284;19.310;2024-03-17T01:34:48;10.05;;;3.47;;
17818;SDS011;9034;50.284;19.310;2024-03-17T01:35:51;10.10;;;3.60;;
17818;SDS011;9034;50.284;19.310;2024-03-17T01:36:53;7.32;;;4.53;;
17818;SDS011;9034;50.284;19.310;2024-03-17T01:37:54;8.33;;;3.60;;
17818;SDS011;9034;50.284;19.310;2024-03-17T01:38:55;5.05;;;2.95;;
17818;SDS011;9034;50.284;19.310;2024-03-17T01:39:56;8.57;;;3.22;;
17818;SDS011;9034;50.284;19.310;2024-03-17T01:40:58;6.75;;;3.33;;
17818;SDS011;9034;50.284;19.310;2024-03-17T01:41:59;8.48;;;4.32;;
17818;SDS011;9034;50.284;19.310;2024-03-17T01:43:00;10.32;;;3.55;;
17818;SDS011;9034;50.284;19.310;2024-03-17T01:44:02;6.80;;;3.53;;
17818;SDS011;9034;50.284;19.310;2024-03-17T01:45:07;11.40;;;3.80;;
17818;SDS011;9034;50.284;19.310;2024-03-17T01:46:21;7.82;;;3.58;;
17818;SDS011;9034;50.284;19.310;2024-03-17T01:47:22;7.53;;;3.33;;
17818;SDS011;9034;50.284;19.310;2024-03-17T01:48:26;11.10;;;3.15;;
17818;SDS011;9034;50.284;19.310;2024-03-17T01:49:27;5.03;;;3.30;;
17818;SDS011;9034;50.284;19.310;2024-03-17T01:50:28;11.43;;;3.72;;
17818;SDS011;9034;50.284;19.310;2024-03-17T01:51:33;11.77;;;3.72;;
17818;SDS011;9034;50.284;19.310;2024-03-17T01:52:35;10.75;;;3.83;;
17818;SDS011;9034;50.284;19.310;2024-03-17T01:53:36;7.32;;;3.47;;
17818;SDS011;9034;50.284;19.310;2024-03-17T01:54:38;8.32;;;3.70;;
17818;SDS011;9034;50.284;19.310;2024-03-17T01:55:40;7.18;;;3.78;;
17818;SDS011;9034;50.284;19.310;2024-03-17T01:56:43;9.90;;;3.65;;
17818;SDS011;9034;50.284;19.310;2024-03-17T01:57:44;8.70;;;3.80;;
17818;SDS011;9034;50.284;19.310;2024-03-17T01:58:46;16.50;;;4.05;;
17818;SDS011;9034;50.284;19.310;2024-03-17T01:59:48;8.15;;;3.80;;
17818;SDS011;9034;50.284;19.310;2024-03-17T02:00:49;8.43;;;3.95;;
17818;SDS011;9034;50.284;19.310;2024-03-17T02:01:50;5.03;;;3.92;;
17818;SDS011;9034;50.284;19.310;2024-03-17T02:02:51;12.10;;;5.63;;
17818;SDS011;9034;50.284;19.310;2024-03-17T02:03:53;11.95;;;4.72;;
17818;SDS011;9034;50.284;19.310;2024-03-17T02:04:54;9.85;;;4.25;;
17818;SDS011;9034;50.284;19.310;2024-03-17T02:05:55;6.32;;;3.92;;
17818;SDS011;9034;50.284;19.310;2024-03-17T02:06:58;11.27;;;4.35;;
17818;SDS011;9034;50.284;19.310;2024-03-17T02:07:59;11.88;;;4.80;;
17818;SDS011;9034;50.284;19.310;2024-03-17T02:09:00;9.85;;;4.35;;
17818;SDS011;9034;50.284;19.310;2024-03-17T02:10:03;12.23;;;4.35;;
17818;SDS011;9034;50.284;19.310;2024-03-17T02:11:05;8.05;;;4.10;;
17818;SDS011;9034;50.284;19.310;2024-03-17T02:12:11;8.05;;;4.55;;
17818;SDS011;9034;50.284;19.310;2024-03-17T02:13:12;10.45;;;5.07;;
17818;SDS011;9034;50.284;19.310;2024-03-17T02:14:14;9.75;;;4.63;;
17818;SDS011;9034;50.284;19.310;2024-03-17T02:15:17;6.32;;;4.15;;
17818;SDS011;9034;50.284;19.310;2024-03-17T02:16:19;11.45;;;4.13;;
17818;SDS011;9034;50.284;19.310;2024-03-17T02:17:21;9.40;;;4.03;;
17818;SDS011;9034;50.284;19.310;2024-03-17T02:18:22;10.82;;;4.30;;
17818;SDS011;9034;50.284;19.310;2024-03-17T02:19:23;8.93;;;4.17;;
17818;SDS011;9034;50.284;19.310;2024-03-17T02:20:25;9.60;;;5.32;;
17818;SDS011;9034;50.284;19.310;2024-03-17T02:21:41;13.27;;;4.30;;
17818;SDS011;9034;50.284;19.310;2024-03-17T02:22:44;10.00;;;4.53;;
17818;SDS011;9034;50.284;19.310;2024-03-17T02:23:45;14.57;;;5.60;;
17818;SDS011;9034;50.284;19.310;2024-03-17T02:24:47;15.50;;;7.85;;
17818;SDS011;9034;50.284;19.310;2024-03-17T02:25:48;17.10;;;10.60;;
17818;SDS011;9034;50.284;19.310;2024-03-17T02:26:49;16.88;;;11.43;;
17818;SDS011;9034;50.284;19.310;2024-03-17T02:27:51;23.30;;;12.23;;
17818;SDS011;9034;50.284;19.310;2024-03-17T02:28:52;18.27;;;11.70;;
17818;SDS011;9034;50.284;19.310;2024-03-17T02:29:53;21.70;;;12.87;;
17818;SDS011;9034;50.284;19.310;2024-03-17T02:30:54;18.05;;;12.38;;
17818;SDS011;9034;50.284;19.310;2024-03-17T02:31:56;18.30;;;13.13;;
17818;SDS011;9034;50.284;19.310;2024-03-17T02:32:57;26.55;;;15.18;;
17818;SDS011;9034;50.284;19.310;2024-03-17T02:33:58;24.13;;;16.27;;
17818;SDS011;9034;50.284;19.310;2024-03-17T02:34:59;21.77;;;14.67;;
17818;SDS011;9034;50.284;19.310;2024-03-17T02:36:02;24.10;;;15.65;;
17818;SDS011;9034;50.284;19.310;2024-03-17T02:37:04;25.08;;;15.98;;
17818;SDS011;9034;50.284;19.310;2024-03-17T02:38:08;23.92;;;16.02;;
17818;SDS011;9034;50.284;19.310;2024-03-17T02:39:12;22.77;;;14.13;;
17818;SDS011;9034;50.284;19.310;2024-03-17T02:40:34;18.13;;;13.20;;
17818;SDS011;9034;50.284;19.310;2024-03-17T02:41:36;22.50;;;14.32;;
17818;SDS011;9034;50.284;19.310;2024-03-17T02:42:37;20.75;;;13.77;;
17818;SDS011;9034;50.284;19.310;2024-03-17T02:43:41;22.48;;;15.30;;
17818;SDS011;9034;50.284;19.310;2024-03-17T02:44:42;20.15;;;13.48;;
17818;SDS011;9034;50.284;19.310;2024-03-17T02:45:44;24.25;;;14.70;;
17818;SDS011;9034;50.284;19.310;2024-03-17T02:46:45;22.85;;;14.02;;
17818;SDS011;9034;50.284;19.310;2024-03-17T02:47:46;23.60;;;14.55;;
17818;SDS011;9034;50.284;19.310;2024-03-17T02:48:51;20.65;;;14.05;;
17818;SDS011;9034;50.284;19.310;2024-03-17T02:49:53;20.17;;;14.50;;
17818;SDS011;9034;50.284;19.310;2024-03-17T02:50:55;28.52;;;16.02;;
17818;SDS011;9034;50.284;19.310;2024-03-17T02:51:57;21.02;;;13.82;;
17818;SDS011;9034;50.284;19.310;2024-03-17T02:53:00;18.60;;;14.82;;
17818;SDS011;9034;50.284;19.310;2024-03-17T02:54:04;24.35;;;14.60;;
17818;SDS011;9034;50.284;19.310;2024-03-17T02:55:07;19.83;;;13.82;;
17818;SDS011;9034;50.284;19.310;2024-03-17T02:56:08;19.33;;;13.65;;
17818;SDS011;9034;50.284;19.310;2024-03-17T02:57:09;20.50;;;13.10;;
17818;SDS011;9034;50.284;19.310;2024-03-17T02:58:12;16.20;;;12.50;;
17818;SDS011;9034;50.284;19.310;2024-03-17T02:59:13;18.38;;;11.70;;
17818;SDS011;9034;50.284;19.310;2024-03-17T03:00:15;14.38;;;9.70;;
17818;SDS011;9034;50.284;19.310;2024-03-17T03:01:16;15.45;;;9.57;;
17818;SDS011;9034;50.284;19.310;2024-03-17T03:02:18;15.23;;;9.55;;
17818;SDS011;9034;50.284;19.310;2024-03-17T03:03:20;15.85;;;9.95;;
17818;SDS011;9034;50.284;19.310;2024-03-17T03:04:22;17.40;;;9.55;;
17818;SDS011;9034;50.284;19.310;2024-03-17T03:05:23;17.98;;;10.00;;
17818;SDS011;9034;50.284;19.310;2024-03-17T03:06:25;14.52;;;9.93;;
17818;SDS011;9034;50.284;19.310;2024-03-17T03:07:26;18.48;;;12.43;;
17818;SDS011;9034;50.284;19.310;2024-03-17T03:08:29;19.80;;;13.65;;
17818;SDS011;9034;50.284;19.310;2024-03-17T03:09:31;22.15;;;14.48;;
17818;SDS011;9034;50.284;19.310;2024-03-17T03:10:33;19.98;;;14.38;;
17818;SDS011;9034;50.284;19.310;2024-03-17T03:11:36;24.38;;;14.95;;
17818;SDS011;9034;50.284;19.310;2024-03-17T03:12:37;22.20;;;14.10;;
17818;SDS011;9034;50.284;19.310;2024-03-17T03:13:39;20.92;;;13.98;;
17818;SDS011;9034;50.284;19.310;2024-03-17T03:14:40;18.75;;;13.93;;
17818;SDS011;9034;50.284;19.310;2024-03-17T03:15:42;17.58;;;11.63;;
17818;SDS011;9034;50.284;19.310;2024-03-17T03:16:44;17.60;;;10.73;;
17818;SDS011;9034;50.284;19.310;2024-03-17T03:17:46;18.05;;;10.27;;
17818;SDS011;9034;50.284;19.310;2024-03-17T03:18:47;13.27;;;8.80;;
17818;SDS011;9034;50.284;19.310;2024-03-17T03:19:50;16.95;;;9.07;;
17818;SDS011;9034;50.284;19.310;2024-03-17T03:20:51;19.17;;;9.07;;
17818;SDS011;9034;50.284;19.310;2024-03-17T03:21:52;18.83;;;7.93;;
17818;SDS011;9034;50.284;19.310;2024-03-17T03:22:54;14.32;;;9.68;;
17818;SDS011;9034;50.284;19.310;2024-03-17T03:23:55;17.67;;;8.25;;
17818;SDS011;9034;50.284;19.310;2024-03-17T03:24:59;13.07;;;7.18;;
17818;SDS011;9034;50.284;19.310;2024-03-17T03:26:00;20.38;;;10.68;;
17818;SDS011;9034;50.284;19.310;2024-03-17T03:27:03;12.07;;;7.25;;
17818;SDS011;9034;50.284;19.310;2024-03-17T03:28:05;12.98;;;7.03;;
17818;SDS011;9034;50.284;19.310;2024-03-17T03:29:07;7.10;;;6.18;;
17818;SDS011;9034;50.284;19.310;2024-03-17T03:30:08;13.82;;;7.10;;
17818;SDS011;9034;50.284;19.310;2024-03-17T03:31:11;10.95;;;6.50;;
17818;SDS011;9034;50.284;19.310;2024-03-17T03:32:13;13.30;;;6.53;;
17818;SDS011;9034;50.284;19.310;2024-03-17T03:33:15;13.13;;;7.15;;
17818;SDS011;9034;50.284;19.310;2024-03-17T03:34:18;18.20;;;6.88;;
17818;SDS011;9034;50.284;19.310;2024-03-17T03:35:19;12.48;;;6.90;;
17818;SDS011;9034;50.284;19.310;2024-03-17T03:36:21;11.15;;;5.65;;
17818;SDS011;9034;50.284;19.310;2024-03-17T03:37:22;11.70;;;7.05;;
17818;SDS011;9034;50.284;19.310;2024-03-17T03:38:25;12.40;;;7.03;;
17818;SDS011;9034;50.284;19.310;2024-03-17T03:39:26;9.63;;;6.53;;
17818;SDS011;9034;50.284;19.310;2024-03-17T03:40:33;14.75;;;6.53;;
17818;SDS011;9034;50.284;19.310;2024-03-17T03:41:34;13.95;;;6.60;;
17818;SDS011;9034;50.284;19.310;2024-03-17T03:42:36;11.35;;;7.93;;
17818;SDS011;9034;50.284;19.310;2024-03-17T03:43:37;12.85;;;6.88;;
17818;SDS011;9034;50.284;19.310;2024-03-17T03:44:39;11.60;;;7.07;;
17818;SDS011;9034;50.284;19.310;2024-03-17T03:45:40;9.88;;;6.53;;
17818;SDS011;9034;50.284;19.310;2024-03-17T03:46:43;11.13;;;7.20;;
17818;SDS011;9034;50.284;19.310;2024-03-17T03:47:45;14.32;;;7.47;;
17818;SDS011;9034;50.284;19.310;2024-03-17T03:48:47;14.50;;;8.60;;
17818;SDS011;9034;50.284;19.310;2024-03-17T03:49:48;13.68;;;9.07;;
17818;SDS011;9034;50.284;19.310;2024-03-17T03:50:50;14.25;;;9.00;;
17818;SDS011;9034;50.284;19.310;2024-03-17T03:51:51;13.52;;;8.95;;
17818;SDS011;9034;50.284;19.310;2024-03-17T03:52:53;16.17;;;8.55;;
17818;SDS011;9034;50.284;19.310;2024-03-17T03:53:54;18.17;;;7.88;;
17818;SDS011;9034;50.284;19.310;2024-03-17T03:54:57;10.57;;;7.18;;
17818;SDS011;9034;50.284;19.310;2024-03-17T03:56:02;12.77;;;6.85;;
17818;SDS011;9034;50.284;19.310;2024-03-17T03:57:06;11.18;;;6.38;;
17818;SDS011;9034;50.284;19.310;2024-03-17T03:58:07;10.65;;;6.03;;
17818;SDS011;9034;50.284;19.310;2024-03-17T03:59:08;8.27;;;5.03;;
17818;SDS011;9034;50.284;19.310;2024-03-17T04:00:11;10.07;;;4.60;;
17818;SDS011;9034;50.284;19.310;2024-03-17T04:01:13;16.20;;;6.95;;
17818;SDS011;9034;50.284;19.310;2024-03-17T04:02:21;11.68;;;5.45;;
17818;SDS011;9034;50.284;19.310;2024-03-17T04:03:25;9.90;;;4.68;;
17818;SDS011;9034;50.284;19.310;2024-03-17T04:04:26;15.90;;;7.88;;
17818;SDS011;9034;50.284;19.310;2024-03-17T04:05:28;10.82;;;4.78;;
17818;SDS011;9034;50.284;19.310;2024-03-17T04:06:30;9.68;;;4.25;;
17818;SDS011;9034;50.284;19.310;2024-03-17T04:07:32;7.38;;;3.42;;
17818;SDS011;9034;50.284;19.310;2024-03-17T04:08:33;9.60;;;4.40;;
17818;SDS011;9034;50.284;19.310;2024-03-17T04:09:34;9.52;;;4.72;;
17818;SDS011;9034;50.284;19.310;2024-03-17T04:10:36;12.30;;;4.35;;
17818;SDS011;9034;50.284;19.310;2024-03-17T04:11:38;13.83;;;5.23;;
17818;SDS011;9034;50.284;19.310;2024-03-17T04:12:39;8.52;;;4.43;;
17818;SDS011;9034;50.284;19.310;2024-03-17T04:13:42;7.93;;;4.53;;
17818;SDS011;9034;50.284;19.310;2024-03-17T04:14:43;6.85;;;4.72;;
17818;SDS011;9034;50.284;19.310;2024-03-17T04:15:45;10.45;;;5.03;;
17818;SDS011;9034;50.284;19.310;2024-03-17T04:16:46;8.65;;;4.75;;
17818;SDS011;9034;50.284;19.310;2024-03-17T04:17:48;9.02;;;5.60;;
17818;SDS011;9034;50.284;19.310;2024-03-17T04:18:49;12.32;;;5.70;;
17818;SDS011;9034;50.284;19.310;2024-03-17T04:19:51;8.77;;;3.85;;
17818;SDS011;9034;50.284;19.310;2024-03-17T04:20:53;9.95;;;4.90;;
17818;SDS011;9034;50.284;19.310;2024-03-17T04:21:55;7.75;;;4.25;;
17818;SDS011;9034;50.284;19.310;2024-03-17T04:22:57;12.60;;;4.25;;
17818;SDS011;9034;50.284;19.310;2024-03-17T04:23:58;8.32;;;4.50;;
17818;SDS011;9034;50.284;19.310;2024-03-17T04:25:00;7.57;;;4.07;;
17818;SDS011;9034;50.284;19.310;2024-03-17T04:26:02;10.70;;;3.90;;
17818;SDS011;9034;50.284;19.310;2024-03-17T04:27:06;7.18;;;3.75;;
17818;SDS011;9034;50.284;19.310;2024-03-17T04:28:07;7.78;;;3.67;;
17818;SDS011;9034;50.284;19.310;2024-03-17T04:29:09;9.88;;;3.95;;
17818;SDS011;9034;50.284;19.310;2024-03-17T04:30:10;10.75;;;3.83;;
17818;SDS011;9034;50.284;19.310;2024-03-17T04:31:13;7.57;;;2.75;;
17818;SDS011;9034;50.284;19.310;2024-03-17T04:32:14;15.88;;;4.30;;
17818;SDS011;9034;50.284;19.310;2024-03-17T04:33:15;7.63;;;3.47;;
17818;SDS011;9034;50.284;19.310;2024-03-17T04:34:18;11.35;;;4.18;;
17818;SDS011;9034;50.284;19.310;2024-03-17T04:35:19;14.80;;;3.22;;
17818;SDS011;9034;50.284;19.310;2024-03-17T04:36:21;10.85;;;4.32;;
17818;SDS011;9034;50.284;19.310;2024-03-17T04:37:22;6.45;;;3.35;;
17818;SDS011;9034;50.284;19.310;2024-03-17T04:38:25;10.85;;;4.20;;
17818;SDS011;9034;50.284;19.310;2024-03-17T04:39:27;5.75;;;2.92;;
17818;SDS011;9034;50.284;19.310;2024-03-17T04:40:28;8.82;;;3.30;;
17818;SDS011;9034;50.284;19.310;2024-03-17T04:41:29;10.75;;;2.90;;
17818;SDS011;9034;50.284;19.310;2024-03-17T04:42:32;7.22;;;3.45;;
17818;SDS011;9034;50.284;19.310;2024-03-17T04:43:33;9.15;;;3.45;;
17818;SDS011;9034;50.284;19.310;2024-03-17T04:44:35;5.35;;;2.60;;
17818;SDS011;9034;50.284;19.310;2024-03-17T04:45:36;7.22;;;3.38;;
17818;SDS011;9034;50.284;19.310;2024-03-17T04:46:38;13.10;;;3.72;;
17818;SDS011;9034;50.284;19.310;2024-03-17T04:47:40;8.38;;;3.45;;
17818;SDS011;9034;50.284;19.310;2024-03-17T04:48:41;8.60;;;3.03;;
17818;SDS011;9034;50.284;19.310;2024-03-17T04:49:43;11.68;;;3.78;;
17818;SDS011;9034;50.284;19.310;2024-03-17T04:50:45;9.13;;;4.05;;
17818;SDS011;9034;50.284;19.310;2024-03-17T04:51:47;8.35;;;3.15;;
17818;SDS011;9034;50.284;19.310;2024-03-17T04:52:48;9.77;;;3.67;;
17818;SDS011;9034;50.284;19.310;2024-03-17T04:53:51;6.47;;;3.55;;
17818;SDS011;9034;50.284;19.310;2024-03-17T04:54:52;9.65;;;3.00;;
17818;SDS011;9034;50.284;19.310;2024-03-17T04:55:59;7.20;;;3.13;;
17818;SDS011;9034;50.284;19.310;2024-03-17T04:57:02;5.55;;;3.03;;
17818;SDS011;9034;50.284;19.310;2024-03-17T04:58:04;17.70;;;6.50;;
17818;SDS011;9034;50.284;19.310;2024-03-17T04:59:06;8.65;;;3.50;;
17818;SDS011;9034;50.284;19.310;2024-03-17T05:00:08;8.40;;;3.58;;
17818;SDS011;9034;50.284;19.310;2024-03-17T05:01:12;10.02;;;3.10;;
17818;SDS011;9034;50.284;19.310;2024-03-17T05:02:13;15.48;;;5.55;;
17818;SDS011;9034;50.284;19.310;2024-03-17T05:03:14;12.90;;;5.20;;
17818;SDS011;9034;50.284;19.310;2024-03-17T05:04:16;12.40;;;4.30;;
17818;SDS011;9034;50.284;19.310;2024-03-17T05:05:18;7.47;;;3.47;;
17818;SDS011;9034;50.284;19.310;2024-03-17T05:06:20;5.97;;;3.35;;
17818;SDS011;9034;50.284;19.310;2024-03-17T05:07:22;5.47;;;2.90;;
17818;SDS011;9034;50.284;19.310;2024-03-17T05:08:24;11.73;;;4.13;;
17818;SDS011;9034;50.284;19.310;2024-03-17T05:09:25;7.15;;;3.80;;
17818;SDS011;9034;50.284;19.310;2024-03-17T05:10:27;8.18;;;3.13;;
17818;SDS011;9034;50.284;19.310;2024-03-17T05:11:28;13.02;;;5.00;;
17818;SDS011;9034;50.284;19.310;2024-03-17T05:12:30;8.75;;;4.13;;
17818;SDS011;9034;50.284;19.310;2024-03-17T05:13:33;11.57;;;3.92;;
17818;SDS011;9034;50.284;19.310;2024-03-17T05:14:35;7.60;;;3.17;;
17818;SDS011;9034;50.284;19.310;2024-03-17T05:15:36;10.80;;;3.88;;
17818;SDS011;9034;50.284;19.310;2024-03-17T05:16:39;6.03;;;3.50;;
17818;SDS011;9034;50.284;19.310;2024-03-17T05:17:40;8.02;;;3.70;;
17818;SDS011;9034;50.284;19.310;2024-03-17T05:18:42;9.82;;;3.85;;
17818;SDS011;9034;50.284;19.310;2024-03-17T05:19:43;13.18;;;5.43;;
17818;SDS011;9034;50.284;19.310;2024-03-17T05:20:45;15.70;;;5.97;;
17818;SDS011;9034;50.284;19.310;2024-03-17T05:21:47;13.77;;;6.03;;
17818;SDS011;9034;50.284;19.310;2024-03-17T05:22:49;17.23;;;7.88;;
17818;SDS011;9034;50.284;19.310;2024-03-17T05:23:50;12.98;;;6.53;;
17818;SDS011;9034;50.284;19.310;2024-03-17T05:24:53;15.10;;;6.20;;
17818;SDS011;9034;50.284;19.310;2024-03-17T05:25:54;14.95;;;6.18;;
17818;SDS011;9034;50.284;19.310;2024-03-17T05:26:57;14.35;;;5.88;;
17818;SDS011;9034;50.284;19.310;2024-03-17T05:27:58;12.70;;;4.10;;
17818;SDS011;9034;50.284;19.310;2024-03-17T05:29:01;15.00;;;6.72;;
17818;SDS011;9034;50.284;19.310;2024-03-17T05:30:03;6.43;;;3.65;;
17818;SDS011;9034;50.284;19.310;2024-03-17T05:31:06;10.07;;;4.43;;
17818;SDS011;9034;50.284;19.310;2024-03-17T05:32:07;8.20;;;3.63;;
17818;SDS011;9034;50.284;19.310;2024-03-17T05:33:10;16.55;;;5.05;;
17818;SDS011;9034;50.284;19.310;2024-03-17T05:34:11;11.38;;;4.38;;
17818;SDS011;9034;50.284;19.310;2024-03-17T05:35:12;20.70;;;7.50;;
17818;SDS011;9034;50.284;19.310;2024-03-17T05:36:14;8.40;;;3.92;;
17818;SDS011;9034;50.284;19.310;2024-03-17T05:37:15;8.77;;;3.95;;
17818;SDS011;9034;50.284;19.310;2024-03-17T05:38:17;11.50;;;3.70;;
17818;SDS011;9034;50.284;19.310;2024-03-17T05:39:19;7.70;;;3.50;;
17818;SDS011;9034;50.284;19.310;2024-03-17T05:40:23;11.02;;;3.90;;
17818;SDS011;9034;50.284;19.310;2024-03-17T05:41:24;10.82;;;4.70;;
17818;SDS011;9034;50.284;19.310;2024-03-17T05:42:26;13.48;;;4.72;;
17818;SDS011;9034;50.284;19.310;2024-03-17T05:43:29;11.60;;;3.92;;
17818;SDS011;9034;50.284;19.310;2024-03-17T05:44:34;15.32;;;5.70;;
17818;SDS011;9034;50.284;19.310;2024-03-17T05:45:50;20.90;;;5.45;;
17818;SDS011;9034;50.284;19.310;2024-03-17T05:46:53;12.82;;;3.75;;
17818;SDS011;9034;50.284;19.310;2024-03-17T05:47:56;13.15;;;3.83;;
17818;SDS011;9034;50.284;19.310;2024-03-17T05:48:58;9.65;;;3.70;;
17818;SDS011;9034;50.284;19.310;2024-03-17T05:49:59;10.70;;;3.67;;
17818;SDS011;9034;50.284;19.310;2024-03-17T05:51:01;14.63;;;4.20;;
17818;SDS011;9034;50.284;19.310;2024-03-17T05:52:03;9.07;;;4.03;;
17818;SDS011;9034;50.284;19.310;2024-03-17T05:53:04;12.40;;;4.07;;
17818;SDS011;9034;50.284;19.310;2024-03-17T05:54:07;9.50;;;3.80;;
17818;SDS011;9034;50.284;19.310;2024-03-17T05:55:08;14.43;;;4.97;;
17818;SDS011;9034;50.284;19.310;2024-03-17T05:56:12;8.52;;;4.53;;
17818;SDS011;9034;50.284;19.310;2024-03-17T05:57:13;15.13;;;5.05;;
17818;SDS011;9034;50.284;19.310;2024-03-17T05:58:16;9.90;;;4.28;;
17818;SDS011;9034;50.284;19.310;2024-03-17T05:59:18;20.92;;;7.22;;
17818;SDS011;9034;50.284;19.310;2024-03-17T06:00:21;10.85;;;4.18;;
17818;SDS011;9034;50.284;19.310;2024-03-17T06:01:22;10.38;;;3.97;;
17818;SDS011;9034;50.284;19.310;2024-03-17T06:02:24;11.27;;;4.00;;
17818;SDS011;9034;50.284;19.310;2024-03-17T06:03:25;11.30;;;4.60;;
17818;SDS011;9034;50.284;19.310;2024-03-17T06:04:27;9.20;;;4.35;;
17818;SDS011;9034;50.284;19.310;2024-03-17T06:05:31;14.77;;;4.10;;
17818;SDS011;9034;50.284;19.310;2024-03-17T06:06:33;7.50;;;4.05;;
17818;SDS011;9034;50.284;19.310;2024-03-17T06:07:34;10.00;;;4.75;;
17818;SDS011;9034;50.284;19.310;2024-03-17T06:08:36;12.80;;;4.57;;
17818;SDS011;9034;50.284;19.310;2024-03-17T06:09:38;9.77;;;4.95;;